Terminal Aerodrome Forecast
Issued by NWS

Home | Current Version | Previous Version | Text Only | Print | Product List | Glossary On
Versions: 1 2 3 4 5 6 7 8 9 10 11 12 13 14 15 16
000
FTUS41 KBTV 181340 AAA
TAFPBG
TAF AMD
KPBG 181340Z 1814/1912 16010KT P6SM -RA OVC045
      TEMPO 1814/1817 4SM -RA BR OVC030
     FM181700 15008KT P6SM VCSH SCT015 OVC025
     FM190400 18005KT P6SM OVC025=

USA.gov is the U.S. government's official web portal to all federal, state and local government web resources and services.